sensor_id;sensor_type;location;lat;lon;timestamp;temperature;humidity
38183;DHT22;23991;52.430;10.586;2022-08-11T00:01:59;20.20;55.30
38183;DHT22;23991;52.430;10.586;2022-08-11T00:04:25;20.20;55.40
38183;DHT22;23991;52.430;10.586;2022-08-11T00:06:53;20.10;55.40
38183;DHT22;23991;52.430;10.586;2022-08-11T00:09:22;20.10;55.50
38183;DHT22;23991;52.430;10.586;2022-08-11T00:11:55;20.10;55.40
38183;DHT22;23991;52.430;10.586;2022-08-11T00:14:27;20.00;55.50
38183;DHT22;23991;52.430;10.586;2022-08-11T00:17:00;20.00;55.40
38183;DHT22;23991;52.430;10.586;2022-08-11T00:19:28;20.00;55.60
38183;DHT22;23991;52.430;10.586;2022-08-11T00:21:55;19.90;55.80
38183;DHT22;23991;52.430;10.586;2022-08-11T00:24:23;19.90;55.70
38183;DHT22;23991;52.430;10.586;2022-08-11T00:26:51;19.80;55.80
38183;DHT22;23991;52.430;10.586;2022-08-11T00:29:17;19.80;55.80
38183;DHT22;23991;52.430;10.586;2022-08-11T00:31:50;19.80;56.00
38183;DHT22;23991;52.430;10.586;2022-08-11T00:34:22;19.80;56.20
38183;DHT22;23991;52.430;10.586;2022-08-11T00:36:52;19.70;56.00
38183;DHT22;23991;52.430;10.586;2022-08-11T00:39:20;19.70;56.30
38183;DHT22;23991;52.430;10.586;2022-08-11T00:47:15;19.60;56.60
38183;DHT22;23991;52.430;10.586;2022-08-11T00:50:03;19.50;56.70
38183;DHT22;23991;52.430;10.586;2022-08-11T00:52:46;19.40;57.00
38183;DHT22;23991;52.430;10.586;2022-08-11T01:01:33;19.30;57.10
38183;DHT22;23991;52.430;10.586;2022-08-11T01:04:37;19.30;57.20
38183;DHT22;23991;52.430;10.586;2022-08-11T01:10:10;19.10;57.70
38183;DHT22;23991;52.430;10.586;2022-08-11T01:12:49;19.10;57.50
38183;DHT22;23991;52.430;10.586;2022-08-11T01:21:54;19.00;58.00
38183;DHT22;23991;52.430;10.586;2022-08-11T01:24:42;18.90;58.20
38183;DHT22;23991;52.430;10.586;2022-08-11T01:33:42;18.80;58.20
38183;DHT22;23991;52.430;10.586;2022-08-11T01:36:39;18.80;58.30
38183;DHT22;23991;52.430;10.586;2022-08-11T01:42:20;18.70;58.50
38183;DHT22;23991;52.430;10.586;2022-08-11T01:54:04;18.50;57.90
38183;DHT22;23991;52.430;10.586;2022-08-11T01:56:48;18.50;58.00
38183;DHT22;23991;52.430;10.586;2022-08-11T01:59:40;18.50;57.70
38183;DHT22;23991;52.430;10.586;2022-08-11T02:02:34;18.50;58.10
38183;DHT22;23991;52.430;10.586;2022-08-11T02:08:25;18.30;58.50
38183;DHT22;23991;52.430;10.586;2022-08-11T02:11:27;18.30;58.40
38183;DHT22;23991;52.430;10.586;2022-08-11T02:16:46;18.20;59.10
38183;DHT22;23991;52.430;10.586;2022-08-11T02:22:18;18.20;59.50
38183;DHT22;23991;52.430;10.586;2022-08-11T02:25:10;18.10;59.50
38183;DHT22;23991;52.430;10.586;2022-08-11T02:27:54;18.10;59.90
38183;DHT22;23991;52.430;10.586;2022-08-11T02:30:24;18.00;59.50
38183;DHT22;23991;52.430;10.586;2022-08-11T02:32:57;18.00;59.60
38183;DHT22;23991;52.430;10.586;2022-08-11T02:35:57;18.10;59.80
38183;DHT22;23991;52.430;10.586;2022-08-11T02:38:47;18.00;60.10
38183;DHT22;23991;52.430;10.586;2022-08-11T02:41:43;18.00;60.10
38183;DHT22;23991;52.430;10.586;2022-08-11T02:44:48;17.90;60.00
38183;DHT22;23991;52.430;10.586;2022-08-11T02:50:12;17.80;60.50
38183;DHT22;23991;52.430;10.586;2022-08-11T02:53:08;17.80;60.70
38183;DHT22;23991;52.430;10.586;2022-08-11T02:56:02;17.80;60.80
38183;DHT22;23991;52.430;10.586;2022-08-11T03:01:17;17.70;60.70
38183;DHT22;23991;52.430;10.586;2022-08-11T03:03:57;17.70;60.50
38183;DHT22;23991;52.430;10.586;2022-08-11T03:12:10;17.60;61.10
38183;DHT22;23991;52.430;10.586;2022-08-11T03:15:15;17.50;61.20
38183;DHT22;23991;52.430;10.586;2022-08-11T03:18:22;17.50;61.20
38183;DHT22;23991;52.430;10.586;2022-08-11T03:24:32;17.50;61.20
38183;DHT22;23991;52.430;10.586;2022-08-11T03:27:02;17.40;61.20
38183;DHT22;23991;52.430;10.586;2022-08-11T03:32:20;17.30;61.50
38183;DHT22;23991;52.430;10.586;2022-08-11T03:34:49;17.30;61.70
38183;DHT22;23991;52.430;10.586;2022-08-11T03:43:57;17.20;62.10
38183;DHT22;23991;52.430;10.586;2022-08-11T03:49:14;17.10;62.30
38183;DHT22;23991;52.430;10.586;2022-08-11T03:51:54;17.10;62.70
38183;DHT22;23991;52.430;10.586;2022-08-11T03:57:33;17.10;62.60
38183;DHT22;23991;52.430;10.586;2022-08-11T04:00:22;17.10;62.70
38183;DHT22;23991;52.430;10.586;2022-08-11T04:06:28;17.00;63.10
38183;DHT22;23991;52.430;10.586;2022-08-11T04:11:41;17.00;62.90
38183;DHT22;23991;52.430;10.586;2022-08-11T04:17:38;17.10;63.00
38183;DHT22;23991;52.430;10.586;2022-08-11T04:32:12;17.40;62.40
38183;DHT22;23991;52.430;10.586;2022-08-11T04:38:11;17.50;62.10
38183;DHT22;23991;52.430;10.586;2022-08-11T04:47:07;17.70;62.10
38183;DHT22;23991;52.430;10.586;2022-08-11T04:50:07;17.80;62.10
38183;DHT22;23991;52.430;10.586;2022-08-11T04:53:15;17.80;61.70
38183;DHT22;23991;52.430;10.586;2022-08-11T04:56:17;18.00;61.90
38183;DHT22;23991;52.430;10.586;2022-08-11T05:02:49;18.10;62.00
38183;DHT22;23991;52.430;10.586;2022-08-11T05:16:59;18.80;61.70
38183;DHT22;23991;52.430;10.586;2022-08-11T05:19:47;18.80;62.00
38183;DHT22;23991;52.430;10.586;2022-08-11T05:22:32;18.90;61.80
38183;DHT22;23991;52.430;10.586;2022-08-11T05:25:29;19.10;61.30
38183;DHT22;23991;52.430;10.586;2022-08-11T05:28:27;19.20;61.40
38183;DHT22;23991;52.430;10.586;2022-08-11T05:31:14;19.30;61.10
38183;DHT22;23991;52.430;10.586;2022-08-11T05:34:07;19.40;61.00
38183;DHT22;23991;52.430;10.586;2022-08-11T05:37:02;19.50;61.10
38183;DHT22;23991;52.430;10.586;2022-08-11T05:39:32;19.60;60.60
38183;DHT22;23991;52.430;10.586;2022-08-11T05:42:21;19.70;60.30
38183;DHT22;23991;52.430;10.586;2022-08-11T05:45:14;19.80;59.80
38183;DHT22;23991;52.430;10.586;2022-08-11T05:48:01;20.00;59.50
38183;DHT22;23991;52.430;10.586;2022-08-11T05:50:51;20.00;59.60
38183;DHT22;23991;52.430;10.586;2022-08-11T05:53:46;20.20;59.10
38183;DHT22;23991;52.430;10.586;2022-08-11T05:56:32;20.30;58.90
38183;DHT22;23991;52.430;10.586;2022-08-11T05:58:58;20.40;58.50
38183;DHT22;23991;52.430;10.586;2022-08-11T06:01:26;20.60;57.90
38183;DHT22;23991;52.430;10.586;2022-08-11T06:03:54;20.70;57.90
38183;DHT22;23991;52.430;10.586;2022-08-11T06:09:30;21.00;57.00
38183;DHT22;23991;52.430;10.586;2022-08-11T06:14:28;21.30;56.20
38183;DHT22;23991;52.430;10.586;2022-08-11T06:16:57;21.30;56.20
38183;DHT22;23991;52.430;10.586;2022-08-11T06:19:31;21.50;56.00
38183;DHT22;23991;52.430;10.586;2022-08-11T06:21:57;21.70;55.40
38183;DHT22;23991;52.430;10.586;2022-08-11T06:24:24;21.90;55.10
38183;DHT22;23991;52.430;10.586;2022-08-11T06:26:51;22.00;54.70
38183;DHT22;23991;52.430;10.586;2022-08-11T06:29:19;22.10;54.20
38183;DHT22;23991;52.430;10.586;2022-08-11T06:32:00;22.30;53.70
38183;DHT22;23991;52.430;10.586;2022-08-11T06:35:04;22.50;53.60
38183;DHT22;23991;52.430;10.586;2022-08-11T06:37:43;22.70;53.30
38183;DHT22;23991;52.430;10.586;2022-08-11T06:43:20;22.90;52.60
38183;DHT22;23991;52.430;10.586;2022-08-11T06:45:49;23.10;52.20
38183;DHT22;23991;52.430;10.586;2022-08-11T06:48:18;23.30;52.00
38183;DHT22;23991;52.430;10.586;2022-08-11T06:50:50;23.20;51.20
38183;DHT22;23991;52.430;10.586;2022-08-11T06:53:43;23.40;51.30
38183;DHT22;23991;52.430;10.586;2022-08-11T06:56:12;23.60;51.10
38183;DHT22;23991;52.430;10.586;2022-08-11T06:58:58;23.70;50.80
38183;DHT22;23991;52.430;10.586;2022-08-11T07:04:12;24.30;49.20
38183;DHT22;23991;52.430;10.586;2022-08-11T07:07:03;24.50;49.20
38183;DHT22;23991;52.430;10.586;2022-08-11T07:10:46;24.70;48.40
38183;DHT22;23991;52.430;10.586;2022-08-11T07:13:12;25.00;47.50
38183;DHT22;23991;52.430;10.586;2022-08-11T07:15:58;25.30;47.10
38183;DHT22;23991;52.430;10.586;2022-08-11T07:18:27;25.70;46.30
38183;DHT22;23991;52.430;10.586;2022-08-11T07:21:33;26.20;45.40
38183;DHT22;23991;52.430;10.586;2022-08-11T07:24:22;26.50;44.50
38183;DHT22;23991;52.430;10.586;2022-08-11T07:27:12;26.80;43.80
38183;DHT22;23991;52.430;10.586;2022-08-11T07:30:11;27.30;42.90
38183;DHT22;23991;52.430;10.586;2022-08-11T07:33:01;27.70;41.90
38183;DHT22;23991;52.430;10.586;2022-08-11T07:35:34;27.70;41.50
38183;DHT22;23991;52.430;10.586;2022-08-11T07:38:06;28.10;41.30
38183;DHT22;23991;52.430;10.586;2022-08-11T07:40:33;28.20;40.80
38183;DHT22;23991;52.430;10.586;2022-08-11T07:43:00;28.50;40.30
38183;DHT22;23991;52.430;10.586;2022-08-11T07:45:27;29.00;39.40
38183;DHT22;23991;52.430;10.586;2022-08-11T07:48:13;29.00;39.50
38183;DHT22;23991;52.430;10.586;2022-08-11T07:50:58;29.50;38.40
38183;DHT22;23991;52.430;10.586;2022-08-11T07:53:44;29.60;38.20
38183;DHT22;23991;52.430;10.586;2022-08-11T07:56:10;29.90;37.80
38183;DHT22;23991;52.430;10.586;2022-08-11T07:58:41;30.20;35.80
38183;DHT22;23991;52.430;10.586;2022-08-11T08:01:26;30.00;36.30
38183;DHT22;23991;52.430;10.586;2022-08-11T08:04:13;30.30;35.60
38183;DHT22;23991;52.430;10.586;2022-08-11T08:07:00;30.20;35.40
38183;DHT22;23991;52.430;10.586;2022-08-11T08:09:45;30.40;35.10
38183;DHT22;23991;52.430;10.586;2022-08-11T08:12:31;30.90;34.50
38183;DHT22;23991;52.430;10.586;2022-08-11T08:15:19;31.20;34.20
38183;DHT22;23991;52.430;10.586;2022-08-11T08:18:05;31.90;32.80
38183;DHT22;23991;52.430;10.586;2022-08-11T08:20:42;32.30;32.00
38183;DHT22;23991;52.430;10.586;2022-08-11T08:23:09;32.50;31.40
38183;DHT22;23991;52.430;10.586;2022-08-11T08:25:38;32.60;31.30
38183;DHT22;23991;52.430;10.586;2022-08-11T08:28:06;32.80;31.00
38183;DHT22;23991;52.430;10.586;2022-08-11T08:30:34;33.00;29.80
38183;DHT22;23991;52.430;10.586;2022-08-11T08:33:20;33.00;30.40
38183;DHT22;23991;52.430;10.586;2022-08-11T08:35:49;33.20;30.40
38183;DHT22;23991;52.430;10.586;2022-08-11T08:38:16;33.70;30.00
38183;DHT22;23991;52.430;10.586;2022-08-11T08:40:42;34.20;29.10
38183;DHT22;23991;52.430;10.586;2022-08-11T08:43:14;34.60;28.80
38183;DHT22;23991;52.430;10.586;2022-08-11T08:45:42;34.80;27.60
38183;DHT22;23991;52.430;10.586;2022-08-11T08:48:12;34.70;27.10
38183;DHT22;23991;52.430;10.586;2022-08-11T08:50:51;34.60;27.50
38183;DHT22;23991;52.430;10.586;2022-08-11T08:53:40;34.70;27.30
38183;DHT22;23991;52.430;10.586;2022-08-11T08:56:10;35.20;26.90
38183;DHT22;23991;52.430;10.586;2022-08-11T08:58:37;35.20;26.40
38183;DHT22;23991;52.430;10.586;2022-08-11T09:01:04;35.60;26.90
38183;DHT22;23991;52.430;10.586;2022-08-11T09:03:35;36.00;26.20
38183;DHT22;23991;52.430;10.586;2022-08-11T09:06:01;36.40;25.90
38183;DHT22;23991;52.430;10.586;2022-08-11T09:08:30;36.10;25.20
38183;DHT22;23991;52.430;10.586;2022-08-11T09:10:56;35.70;25.60
38183;DHT22;23991;52.430;10.586;2022-08-11T09:13:41;36.00;25.50
38183;DHT22;23991;52.430;10.586;2022-08-11T09:16:09;36.20;24.90
38183;DHT22;23991;52.430;10.586;2022-08-11T09:18:36;36.40;25.10
38183;DHT22;23991;52.430;10.586;2022-08-11T09:21:03;36.60;24.50
38183;DHT22;23991;52.430;10.586;2022-08-11T09:23:29;37.10;23.80
38183;DHT22;23991;52.430;10.586;2022-08-11T09:26:14;37.40;24.20
38183;DHT22;23991;52.430;10.586;2022-08-11T09:28:59;38.00;23.20
38183;DHT22;23991;52.430;10.586;2022-08-11T09:31:31;38.30;22.70
38183;DHT22;23991;52.430;10.586;2022-08-11T09:33:58;38.60;22.20
38183;DHT22;23991;52.430;10.586;2022-08-11T09:36:24;38.30;22.20
38183;DHT22;23991;52.430;10.586;2022-08-11T09:39:10;38.30;22.20
38183;DHT22;23991;52.430;10.586;2022-08-11T09:41:55;39.10;20.90
38183;DHT22;23991;52.430;10.586;2022-08-11T09:44:21;39.40;20.90
38183;DHT22;23991;52.430;10.586;2022-08-11T09:47:07;39.60;20.90
38183;DHT22;23991;52.430;10.586;2022-08-11T09:49:40;39.70;21.20
38183;DHT22;23991;52.430;10.586;2022-08-11T09:52:06;39.90;19.90
38183;DHT22;23991;52.430;10.586;2022-08-11T09:54:34;40.20;19.00
38183;DHT22;23991;52.430;10.586;2022-08-11T09:56:59;40.30;19.00
38183;DHT22;23991;52.430;10.586;2022-08-11T09:59:44;40.50;18.80
38183;DHT22;23991;52.430;10.586;2022-08-11T10:02:10;40.80;17.50
38183;DHT22;23991;52.430;10.586;2022-08-11T10:04:42;41.10;17.80
38183;DHT22;23991;52.430;10.586;2022-08-11T10:07:09;41.30;17.90
38183;DHT22;23991;52.430;10.586;2022-08-11T10:12:13;41.30;17.30
38183;DHT22;23991;52.430;10.586;2022-08-11T10:14:44;41.50;17.30
38183;DHT22;23991;52.430;10.586;2022-08-11T10:17:31;41.60;17.40
38183;DHT22;23991;52.430;10.586;2022-08-11T10:19:58;42.00;17.30
38183;DHT22;23991;52.430;10.586;2022-08-11T10:22:27;42.20;17.40
38183;DHT22;23991;52.430;10.586;2022-08-11T10:25:12;42.10;17.90
38183;DHT22;23991;52.430;10.586;2022-08-11T10:27:57;41.90;18.00
38183;DHT22;23991;52.430;10.586;2022-08-11T10:30:25;41.80;17.50
38183;DHT22;23991;52.430;10.586;2022-08-11T10:33:11;41.60;17.40
38183;DHT22;23991;52.430;10.586;2022-08-11T10:35:57;41.80;17.40
38183;DHT22;23991;52.430;10.586;2022-08-11T10:38:24;42.30;16.80
38183;DHT22;23991;52.430;10.586;2022-08-11T10:40:51;42.50;16.20
38183;DHT22;23991;52.430;10.586;2022-08-11T10:43:38;42.60;16.00
38183;DHT22;23991;52.430;10.586;2022-08-11T10:46:07;42.70;16.10
38183;DHT22;23991;52.430;10.586;2022-08-11T10:48:53;42.80;16.10
38183;DHT22;23991;52.430;10.586;2022-08-11T10:51:19;42.90;15.80
38183;DHT22;23991;52.430;10.586;2022-08-11T10:53:47;42.90;15.70
38183;DHT22;23991;52.430;10.586;2022-08-11T10:56:34;43.00;15.70
38183;DHT22;23991;52.430;10.586;2022-08-11T10:59:19;43.10;15.60
38183;DHT22;23991;52.430;10.586;2022-08-11T11:01:46;43.20;15.90
38183;DHT22;23991;52.430;10.586;2022-08-11T11:04:17;43.30;15.60
38183;DHT22;23991;52.430;10.586;2022-08-11T11:07:03;43.30;15.90
38183;DHT22;23991;52.430;10.586;2022-08-11T11:09:51;42.80;16.20
38183;DHT22;23991;52.430;10.586;2022-08-11T11:12:23;43.00;16.00
38183;DHT22;23991;52.430;10.586;2022-08-11T11:15:08;43.20;15.90
38183;DHT22;23991;52.430;10.586;2022-08-11T11:18:00;43.20;15.60
38183;DHT22;23991;52.430;10.586;2022-08-11T11:20:38;43.30;15.50
38183;DHT22;23991;52.430;10.586;2022-08-11T11:31:43;43.60;14.90
38183;DHT22;23991;52.430;10.586;2022-08-11T11:36:50;43.70;14.60
38183;DHT22;23991;52.430;10.586;2022-08-11T11:39:23;43.90;14.80
38183;DHT22;23991;52.430;10.586;2022-08-11T11:41:52;44.00;14.90
38183;DHT22;23991;52.430;10.586;2022-08-11T11:44:19;44.10;15.10
38183;DHT22;23991;52.430;10.586;2022-08-11T11:46:47;44.20;14.20
38183;DHT22;23991;52.430;10.586;2022-08-11T11:49:13;44.30;14.40
38183;DHT22;23991;52.430;10.586;2022-08-11T11:51:42;44.30;14.60
38183;DHT22;23991;52.430;10.586;2022-08-11T11:54:08;44.20;14.30
38183;DHT22;23991;52.430;10.586;2022-08-11T11:56:34;44.20;14.20
38183;DHT22;23991;52.430;10.586;2022-08-11T11:59:01;44.30;13.50
38183;DHT22;23991;52.430;10.586;2022-08-11T12:01:46;44.40;13.90
38183;DHT22;23991;52.430;10.586;2022-08-11T12:04:13;44.20;13.30
38183;DHT22;23991;52.430;10.586;2022-08-11T12:06:40;44.20;14.00
38183;DHT22;23991;52.430;10.586;2022-08-11T12:09:10;44.10;14.30
38183;DHT22;23991;52.430;10.586;2022-08-11T12:11:39;44.40;14.40
38183;DHT22;23991;52.430;10.586;2022-08-11T12:14:23;44.40;14.30
38183;DHT22;23991;52.430;10.586;2022-08-11T12:16:52;44.10;14.20
38183;DHT22;23991;52.430;10.586;2022-08-11T12:19:26;44.30;13.70
38183;DHT22;23991;52.430;10.586;2022-08-11T12:21:55;44.40;13.40
38183;DHT22;23991;52.430;10.586;2022-08-11T12:24:40;44.40;13.80
38183;DHT22;23991;52.430;10.586;2022-08-11T12:27:26;44.50;14.30
38183;DHT22;23991;52.430;10.586;2022-08-11T12:29:59;44.60;14.30
38183;DHT22;23991;52.430;10.586;2022-08-11T12:32:30;44.60;13.90
38183;DHT22;23991;52.430;10.586;2022-08-11T12:34:57;44.60;14.40
38183;DHT22;23991;52.430;10.586;2022-08-11T12:37:35;44.70;13.70
38183;DHT22;23991;52.430;10.586;2022-08-11T12:40:10;44.80;13.70
38183;DHT22;23991;52.430;10.586;2022-08-11T12:42:58;44.80;14.40
38183;DHT22;23991;52.430;10.586;2022-08-11T12:45:44;44.90;14.40
38183;DHT22;23991;52.430;10.586;2022-08-11T12:48:16;44.70;13.90
38183;DHT22;23991;52.430;10.586;2022-08-11T12:51:09;44.90;13.90
38183;DHT22;23991;52.430;10.586;2022-08-11T12:54:07;44.60;13.60
38183;DHT22;23991;52.430;10.586;2022-08-11T12:56:40;44.60;14.10
38183;DHT22;23991;52.430;10.586;2022-08-11T12:59:26;44.60;13.80
38183;DHT22;23991;52.430;10.586;2022-08-11T13:02:15;44.40;14.10
38183;DHT22;23991;52.430;10.586;2022-08-11T13:05:05;44.60;14.00
38183;DHT22;23991;52.430;10.586;2022-08-11T13:07:31;44.70;13.80
38183;DHT22;23991;52.430;10.586;2022-08-11T13:10:00;44.60;14.20
38183;DHT22;23991;52.430;10.586;2022-08-11T13:12:28;44.60;14.00
38183;DHT22;23991;52.430;10.586;2022-08-11T13:15:23;44.80;13.80
38183;DHT22;23991;52.430;10.586;2022-08-11T13:17:53;44.80;14.00
38183;DHT22;23991;52.430;10.586;2022-08-11T13:20:21;44.80;14.30
38183;DHT22;23991;52.430;10.586;2022-08-11T13:22:53;45.00;14.50
38183;DHT22;23991;52.430;10.586;2022-08-11T13:25:22;44.90;14.00
38183;DHT22;23991;52.430;10.586;2022-08-11T13:27:49;45.00;13.80
38183;DHT22;23991;52.430;10.586;2022-08-11T13:30:16;44.80;13.90
38183;DHT22;23991;52.430;10.586;2022-08-11T13:33:02;44.70;13.50
38183;DHT22;23991;52.430;10.586;2022-08-11T13:35:30;44.60;14.00
38183;DHT22;23991;52.430;10.586;2022-08-11T13:37:57;44.70;13.30
38183;DHT22;23991;52.430;10.586;2022-08-11T13:40:23;44.90;13.40
38183;DHT22;23991;52.430;10.586;2022-08-11T13:42:50;44.90;13.40
38183;DHT22;23991;52.430;10.586;2022-08-11T13:45:17;44.70;13.50
38183;DHT22;23991;52.430;10.586;2022-08-11T13:47:44;44.60;13.70
38183;DHT22;23991;52.430;10.586;2022-08-11T13:50:10;44.90;13.40
38183;DHT22;23991;52.430;10.586;2022-08-11T13:52:39;44.70;13.70
38183;DHT22;23991;52.430;10.586;2022-08-11T13:55:10;44.80;13.20
38183;DHT22;23991;52.430;10.586;2022-08-11T13:57:48;44.80;13.20
38183;DHT22;23991;52.430;10.586;2022-08-11T14:00:14;44.80;13.40
38183;DHT22;23991;52.430;10.586;2022-08-11T14:02:42;44.80;12.80
38183;DHT22;23991;52.430;10.586;2022-08-11T14:05:18;44.70;13.20
38183;DHT22;23991;52.430;10.586;2022-08-11T14:08:31;44.50;13.30
38183;DHT22;23991;52.430;10.586;2022-08-11T14:10:38;44.60;12.90
38183;DHT22;23991;52.430;10.586;2022-08-11T14:13:13;44.60;13.10
38183;DHT22;23991;52.430;10.586;2022-08-11T14:16:04;44.50;13.10
38183;DHT22;23991;52.430;10.586;2022-08-11T14:18:32;44.60;13.00
38183;DHT22;23991;52.430;10.586;2022-08-11T14:21:01;44.60;12.90
38183;DHT22;23991;52.430;10.586;2022-08-11T14:23:49;44.50;13.40
38183;DHT22;23991;52.430;10.586;2022-08-11T14:26:16;44.50;13.50
38183;DHT22;23991;52.430;10.586;2022-08-11T14:29:04;44.40;13.50
38183;DHT22;23991;52.430;10.586;2022-08-11T14:31:32;44.30;13.40
38183;DHT22;23991;52.430;10.586;2022-08-11T14:34:03;44.20;13.80
38183;DHT22;23991;52.430;10.586;2022-08-11T14:36:34;44.30;13.80
38183;DHT22;23991;52.430;10.586;2022-08-11T14:39:04;44.10;13.90
38183;DHT22;23991;52.430;10.586;2022-08-11T14:41:31;43.90;13.70
38183;DHT22;23991;52.430;10.586;2022-08-11T14:44:15;43.90;13.50
38183;DHT22;23991;52.430;10.586;2022-08-11T14:47:00;44.00;13.50
38183;DHT22;23991;52.430;10.586;2022-08-11T14:49:32;43.80;13.50
38183;DHT22;23991;52.430;10.586;2022-08-11T14:52:01;43.80;13.50
38183;DHT22;23991;52.430;10.586;2022-08-11T14:54:29;43.70;13.90
38183;DHT22;23991;52.430;10.586;2022-08-11T14:57:14;43.70;13.90
38183;DHT22;23991;52.430;10.586;2022-08-11T14:59:41;43.30;14.30
38183;DHT22;23991;52.430;10.586;2022-08-11T15:02:08;43.10;14.40
38183;DHT22;23991;52.430;10.586;2022-08-11T15:05:00;43.10;14.60
38183;DHT22;23991;52.430;10.586;2022-08-11T15:07:27;43.10;14.50
38183;DHT22;23991;52.430;10.586;2022-08-11T15:10:06;43.20;14.30
38183;DHT22;23991;52.430;10.586;2022-08-11T15:12:33;43.00;14.60
38183;DHT22;23991;52.430;10.586;2022-08-11T15:15:01;43.00;14.80
38183;DHT22;23991;52.430;10.586;2022-08-11T15:17:45;42.90;14.60
38183;DHT22;23991;52.430;10.586;2022-08-11T15:20:17;42.60;14.70
38183;DHT22;23991;52.430;10.586;2022-08-11T15:23:02;42.40;15.00
38183;DHT22;23991;52.430;10.586;2022-08-11T15:25:52;42.60;14.70
38183;DHT22;23991;52.430;10.586;2022-08-11T15:28:20;42.60;14.70
38183;DHT22;23991;52.430;10.586;2022-08-11T15:31:06;42.60;15.10
38183;DHT22;23991;52.430;10.586;2022-08-11T15:33:53;42.40;14.80
38183;DHT22;23991;52.430;10.586;2022-08-11T15:36:39;42.40;14.90
38183;DHT22;23991;52.430;10.586;2022-08-11T15:39:33;41.80;14.70
38183;DHT22;23991;52.430;10.586;2022-08-11T15:42:03;41.80;14.90
38183;DHT22;23991;52.430;10.586;2022-08-11T15:44:54;41.70;15.30
38183;DHT22;23991;52.430;10.586;2022-08-11T15:47:50;41.80;15.10
38183;DHT22;23991;52.430;10.586;2022-08-11T15:50:27;41.50;15.30
38183;DHT22;23991;52.430;10.586;2022-08-11T15:53:02;41.40;15.40
38183;DHT22;23991;52.430;10.586;2022-08-11T15:55:33;41.20;15.30
38183;DHT22;23991;52.430;10.586;2022-08-11T15:58:02;41.10;15.30
38183;DHT22;23991;52.430;10.586;2022-08-11T16:00:48;41.10;15.60
38183;DHT22;23991;52.430;10.586;2022-08-11T16:03:40;40.90;15.70
38183;DHT22;23991;52.430;10.586;2022-08-11T16:06:26;40.60;16.00
38183;DHT22;23991;52.430;10.586;2022-08-11T16:08:52;40.60;15.80
38183;DHT22;23991;52.430;10.586;2022-08-11T16:11:20;40.20;16.10
38183;DHT22;23991;52.430;10.586;2022-08-11T16:13:47;40.10;16.20
38183;DHT22;23991;52.430;10.586;2022-08-11T16:16:33;39.90;16.60
38183;DHT22;23991;52.430;10.586;2022-08-11T16:19:00;39.80;16.50
38183;DHT22;23991;52.430;10.586;2022-08-11T16:21:33;39.70;16.60
38183;DHT22;23991;52.430;10.586;2022-08-11T16:24:02;39.70;16.60
38183;DHT22;23991;52.430;10.586;2022-08-11T16:26:29;39.60;16.60
38183;DHT22;23991;52.430;10.586;2022-08-11T16:28:57;39.60;16.60
38183;DHT22;23991;52.430;10.586;2022-08-11T16:31:24;39.40;16.80
38183;DHT22;23991;52.430;10.586;2022-08-11T16:33:51;39.20;17.00
38183;DHT22;23991;52.430;10.586;2022-08-11T16:36:19;39.10;17.30
38183;DHT22;23991;52.430;10.586;2022-08-11T16:39:04;39.00;17.20
38183;DHT22;23991;52.430;10.586;2022-08-11T16:41:32;38.70;17.20
38183;DHT22;23991;52.430;10.586;2022-08-11T16:44:18;38.60;17.70
38183;DHT22;23991;52.430;10.586;2022-08-11T16:47:05;38.60;17.70
38183;DHT22;23991;52.430;10.586;2022-08-11T16:49:34;38.20;17.90
38183;DHT22;23991;52.430;10.586;2022-08-11T16:52:02;37.90;18.50
38183;DHT22;23991;52.430;10.586;2022-08-11T16:54:33;37.60;18.70
38183;DHT22;23991;52.430;10.586;2022-08-11T16:57:03;37.40;18.20
38183;DHT22;23991;52.430;10.586;2022-08-11T16:59:50;37.10;18.30
38183;DHT22;23991;52.430;10.586;2022-08-11T17:02:19;37.00;18.30
38183;DHT22;23991;52.430;10.586;2022-08-11T17:05:14;36.80;18.30
38183;DHT22;23991;52.430;10.586;2022-08-11T17:08:01;36.70;18.50
38183;DHT22;23991;52.430;10.586;2022-08-11T17:10:50;36.60;19.10
38183;DHT22;23991;52.430;10.586;2022-08-11T17:13:46;36.60;19.20
38183;DHT22;23991;52.430;10.586;2022-08-11T17:16:16;36.30;19.60
38183;DHT22;23991;52.430;10.586;2022-08-11T17:21:24;36.30;19.60
38183;DHT22;23991;52.430;10.586;2022-08-11T17:24:10;36.30;19.70
38183;DHT22;23991;52.430;10.586;2022-08-11T17:26:44;36.10;20.20
38183;DHT22;23991;52.430;10.586;2022-08-11T17:29:47;35.90;20.30
38183;DHT22;23991;52.430;10.586;2022-08-11T17:32:29;35.80;20.50
38183;DHT22;23991;52.430;10.586;2022-08-11T17:35:18;35.80;20.30
38183;DHT22;23991;52.430;10.586;2022-08-11T17:38:15;35.60;20.90
38183;DHT22;23991;52.430;10.586;2022-08-11T17:40:53;35.70;20.40
38183;DHT22;23991;52.430;10.586;2022-08-11T17:43:37;35.50;20.00
38183;DHT22;23991;52.430;10.586;2022-08-11T17:46:24;35.30;20.40
38183;DHT22;23991;52.430;10.586;2022-08-11T17:49:10;35.20;20.30
38183;DHT22;23991;52.430;10.586;2022-08-11T17:51:37;35.10;20.30
38183;DHT22;23991;52.430;10.586;2022-08-11T17:54:23;35.00;20.60
38183;DHT22;23991;52.430;10.586;2022-08-11T17:57:09;34.90;20.80
38183;DHT22;23991;52.430;10.586;2022-08-11T17:59:56;34.70;21.40
38183;DHT22;23991;52.430;10.586;2022-08-11T18:05:19;34.60;21.20
38183;DHT22;23991;52.430;10.586;2022-08-11T18:07:48;34.40;21.60
38183;DHT22;23991;52.430;10.586;2022-08-11T18:10:34;34.20;21.90
38183;DHT22;23991;52.430;10.586;2022-08-11T18:13:21;34.20;21.90
38183;DHT22;23991;52.430;10.586;2022-08-11T18:16:07;34.10;21.90
38183;DHT22;23991;52.430;10.586;2022-08-11T18:18:51;33.90;22.00
38183;DHT22;23991;52.430;10.586;2022-08-11T18:21:37;33.80;22.30
38183;DHT22;23991;52.430;10.586;2022-08-11T18:24:24;33.70;22.50
38183;DHT22;23991;52.430;10.586;2022-08-11T18:27:10;33.70;22.40
38183;DHT22;23991;52.430;10.586;2022-08-11T18:29:59;33.60;22.70
38183;DHT22;23991;52.430;10.586;2022-08-11T18:32:47;33.40;22.80
38183;DHT22;23991;52.430;10.586;2022-08-11T18:35:34;33.40;23.40
38183;DHT22;23991;52.430;10.586;2022-08-11T18:38:19;33.30;23.30
38183;DHT22;23991;52.430;10.586;2022-08-11T18:41:06;33.20;23.60
38183;DHT22;23991;52.430;10.586;2022-08-11T18:43:54;33.00;23.80
38183;DHT22;23991;52.430;10.586;2022-08-11T18:46:41;32.90;23.90
38183;DHT22;23991;52.430;10.586;2022-08-11T18:49:30;32.70;24.50
38183;DHT22;23991;52.430;10.586;2022-08-11T18:52:18;32.70;24.60
38183;DHT22;23991;52.430;10.586;2022-08-11T18:55:08;32.50;24.70
38183;DHT22;23991;52.430;10.586;2022-08-11T18:57:54;32.40;25.00